sensor_id;sensor_type;location;lat;lon;timestamp;pressure;altitude;pressure_sealevel;temperature
61189;BMP280;47054;39.716;2.904;2023-05-07T00:01:12;100169.00;;;26.84
61189;BMP280;47054;39.716;2.904;2023-05-07T00:03:57;100186.81;;;26.85
61189;BMP280;47054;39.716;2.904;2023-05-07T00:06:41;100195.00;;;26.85
61189;BMP280;47054;39.716;2.904;2023-05-07T00:09:26;100195.72;;;26.86
61189;BMP280;47054;39.716;2.904;2023-05-07T00:12:10;100183.34;;;26.85
61189;BMP280;47054;39.716;2.904;2023-05-07T00:14:55;100178.22;;;26.87
61189;BMP280;47054;39.716;2.904;2023-05-07T00:17:39;100174.72;;;26.86
61189;BMP280;47054;39.716;2.904;2023-05-07T00:20:24;100164.19;;;26.88
61189;BMP280;47054;39.716;2.904;2023-05-07T00:23:09;100147.13;;;26.88
61189;BMP280;47054;39.716;2.904;2023-05-07T00:25:54;100149.06;;;26.87
61189;BMP280;47054;39.716;2.904;2023-05-07T00:28:39;100146.00;;;26.85
61189;BMP280;47054;39.716;2.904;2023-05-07T00:31:23;100145.13;;;26.88
61189;BMP280;47054;39.716;2.904;2023-05-07T00:34:07;100148.59;;;26.89
61189;BMP280;47054;39.716;2.904;2023-05-07T00:36:52;100143.94;;;26.89
61189;BMP280;47054;39.716;2.904;2023-05-07T00:39:36;100144.69;;;26.90
61189;BMP280;47054;39.716;2.904;2023-05-07T00:42:21;100144.69;;;26.90
61189;BMP280;47054;39.716;2.904;2023-05-07T00:45:06;100150.13;;;26.90
61189;BMP280;47054;39.716;2.904;2023-05-07T00:47:58;100157.88;;;26.91
61189;BMP280;47054;39.716;2.904;2023-05-07T00:50:43;100144.81;;;26.86
61189;BMP280;47054;39.716;2.904;2023-05-07T00:53:29;100149.38;;;26.89
61189;BMP280;47054;39.716;2.904;2023-05-07T00:56:15;100138.84;;;26.91
61189;BMP280;47054;39.716;2.904;2023-05-07T00:59:01;100124.47;;;26.91
61189;BMP280;47054;39.716;2.904;2023-05-07T01:01:46;100112.03;;;26.90
61189;BMP280;47054;39.716;2.904;2023-05-07T01:04:31;100117.78;;;26.92
61189;BMP280;47054;39.716;2.904;2023-05-07T01:07:16;100113.22;;;26.89
61189;BMP280;47054;39.716;2.904;2023-05-07T01:10:00;100105.41;;;26.91
61189;BMP280;47054;39.716;2.904;2023-05-07T01:12:46;100103.88;;;26.90
61189;BMP280;47054;39.716;2.904;2023-05-07T01:15:32;100101.47;;;26.92
61189;BMP280;47054;39.716;2.904;2023-05-07T01:18:16;100104.94;;;26.92
61189;BMP280;47054;39.716;2.904;2023-05-07T01:21:04;100104.53;;;26.94
61189;BMP280;47054;39.716;2.904;2023-05-07T01:23:49;100083.97;;;26.93
61189;BMP280;47054;39.716;2.904;2023-05-07T01:26:34;100094.84;;;26.93
61189;BMP280;47054;39.716;2.904;2023-05-07T01:29:18;100094.84;;;26.93
61189;BMP280;47054;39.716;2.904;2023-05-07T01:32:05;100097.56;;;26.93
61189;BMP280;47054;39.716;2.904;2023-05-07T01:34:50;100095.19;;;26.95
61189;BMP280;47054;39.716;2.904;2023-05-07T01:37:37;100095.19;;;26.95
61189;BMP280;47054;39.716;2.904;2023-05-07T01:40:23;100081.22;;;26.93
61189;BMP280;47054;39.716;2.904;2023-05-07T01:43:09;100084.72;;;26.93
61189;BMP280;47054;39.716;2.904;2023-05-07T01:45:55;100089.75;;;26.95
61189;BMP280;47054;39.716;2.904;2023-05-07T01:48:40;100089.00;;;26.94
61189;BMP280;47054;39.716;2.904;2023-05-07T01:51:25;100099.09;;;26.94
61189;BMP280;47054;39.716;2.904;2023-05-07T01:54:10;100093.66;;;26.94
61189;BMP280;47054;39.716;2.904;2023-05-07T01:56:56;100083.06;;;26.96
61189;BMP280;47054;39.716;2.904;2023-05-07T01:59:40;100087.03;;;26.95
61189;BMP280;47054;39.716;2.904;2023-05-07T02:02:25;100088.22;;;26.94
61189;BMP280;47054;39.716;2.904;2023-05-07T02:05:12;100103.38;;;26.95
61189;BMP280;47054;39.716;2.904;2023-05-07T02:07:57;100093.97;;;26.96
61189;BMP280;47054;39.716;2.904;2023-05-07T02:10:44;100088.50;;;26.96
61189;BMP280;47054;39.716;2.904;2023-05-07T02:13:31;100075.69;;;26.96
61189;BMP280;47054;39.716;2.904;2023-05-07T02:16:16;100088.50;;;26.96
61189;BMP280;47054;39.716;2.904;2023-05-07T02:19:01;100086.25;;;26.94
61189;BMP280;47054;39.716;2.904;2023-05-07T02:21:47;100088.50;;;26.96
61189;BMP280;47054;39.716;2.904;2023-05-07T02:24:32;100088.50;;;26.96
61189;BMP280;47054;39.716;2.904;2023-05-07T02:27:16;100085.78;;;26.96
61189;BMP280;47054;39.716;2.904;2023-05-07T02:30:02;100085.78;;;26.96
61189;BMP280;47054;39.716;2.904;2023-05-07T02:32:48;100057.84;;;26.83
61189;BMP280;47054;39.716;2.904;2023-05-07T02:35:32;100066.75;;;26.96
61189;BMP280;47054;39.716;2.904;2023-05-07T02:38:17;100059.47;;;26.93
61189;BMP280;47054;39.716;2.904;2023-05-07T02:41:02;100066.75;;;26.96
61189;BMP280;47054;39.716;2.904;2023-05-07T02:43:47;100058.28;;;26.94
61189;BMP280;47054;39.716;2.904;2023-05-07T02:46:31;100059.34;;;26.96
61189;BMP280;47054;39.716;2.904;2023-05-07T02:49:21;100059.34;;;26.96
61189;BMP280;47054;39.716;2.904;2023-05-07T02:52:06;100052.84;;;26.94
61189;BMP280;47054;39.716;2.904;2023-05-07T02:54:51;100063.25;;;26.95
61189;BMP280;47054;39.716;2.904;2023-05-07T02:57:35;100072.97;;;26.96
61189;BMP280;47054;39.716;2.904;2023-05-07T03:00:21;100076.44;;;26.97
61189;BMP280;47054;39.716;2.904;2023-05-07T03:03:18;100081.13;;;26.96
61189;BMP280;47054;39.716;2.904;2023-05-07T03:06:03;100080.34;;;26.96
61189;BMP280;47054;39.716;2.904;2023-05-07T03:08:48;100086.56;;;26.96
61189;BMP280;47054;39.716;2.904;2023-05-07T03:11:32;100083.84;;;26.96
61189;BMP280;47054;39.716;2.904;2023-05-07T03:14:17;100081.59;;;26.95
61189;BMP280;47054;39.716;2.904;2023-05-07T03:17:02;100100.16;;;26.96
61189;BMP280;47054;39.716;2.904;2023-05-07T03:19:46;100106.78;;;26.95
61189;BMP280;47054;39.716;2.904;2023-05-07T03:22:31;100109.09;;;26.97
61189;BMP280;47054;39.716;2.904;2023-05-07T03:25:16;100098.34;;;26.93
61189;BMP280;47054;39.716;2.904;2023-05-07T03:28:00;100104.84;;;26.96
61189;BMP280;47054;39.716;2.904;2023-05-07T03:30:54;100099.41;;;26.96
61189;BMP280;47054;39.716;2.904;2023-05-07T03:33:53;100088.88;;;26.98
61189;BMP280;47054;39.716;2.904;2023-05-07T03:36:38;100095.19;;;26.95
61189;BMP280;47054;39.716;2.904;2023-05-07T03:39:29;100095.50;;;26.97
61189;BMP280;47054;39.716;2.904;2023-05-07T03:42:14;100095.91;;;26.95
61189;BMP280;47054;39.716;2.904;2023-05-07T03:44:59;100100.16;;;26.96
61189;BMP280;47054;39.716;2.904;2023-05-07T03:47:44;100092.47;;;26.95
61189;BMP280;47054;39.716;2.904;2023-05-07T03:50:33;100090.47;;;26.95
61189;BMP280;47054;39.716;2.904;2023-05-07T03:53:17;100107.25;;;26.94
61189;BMP280;47054;39.716;2.904;2023-05-07T03:56:02;100102.59;;;26.94
61189;BMP280;47054;39.716;2.904;2023-05-07T03:58:52;100110.28;;;26.96
61189;BMP280;47054;39.716;2.904;2023-05-07T04:01:36;100106.50;;;26.93
61189;BMP280;47054;39.716;2.904;2023-05-07T04:04:21;100114.25;;;26.95
61189;BMP280;47054;39.716;2.904;2023-05-07T04:07:06;100118.44;;;26.96
61189;BMP280;47054;39.716;2.904;2023-05-07T04:09:56;100124.38;;;26.94
61189;BMP280;47054;39.716;2.904;2023-05-07T04:12:41;100125.84;;;26.95
61189;BMP280;47054;39.716;2.904;2023-05-07T04:15:27;100137.19;;;26.94
61189;BMP280;47054;39.716;2.904;2023-05-07T04:18:13;100121.75;;;26.91
61189;BMP280;47054;39.716;2.904;2023-05-07T04:21:01;100128.66;;;26.92
61189;BMP280;47054;39.716;2.904;2023-05-07T04:23:46;100127.50;;;26.93
61189;BMP280;47054;39.716;2.904;2023-05-07T04:26:31;100140.69;;;26.94
61189;BMP280;47054;39.716;2.904;2023-05-07T04:29:16;100149.63;;;26.95
61189;BMP280;47054;39.716;2.904;2023-05-07T04:32:01;100155.06;;;26.95
61189;BMP280;47054;39.716;2.904;2023-05-07T04:34:46;100156.25;;;26.94
61189;BMP280;47054;39.716;2.904;2023-05-07T04:37:34;100171.69;;;26.97
61189;BMP280;47054;39.716;2.904;2023-05-07T04:40:19;100182.69;;;26.93
61189;BMP280;47054;39.716;2.904;2023-05-07T04:43:04;100193.88;;;26.95
61189;BMP280;47054;39.716;2.904;2023-05-07T04:45:54;100192.78;;;26.93
61189;BMP280;47054;39.716;2.904;2023-05-07T04:48:42;100186.59;;;26.92
61189;BMP280;47054;39.716;2.904;2023-05-07T04:51:26;100188.91;;;26.94
61189;BMP280;47054;39.716;2.904;2023-05-07T04:54:12;100191.25;;;26.92
61189;BMP280;47054;39.716;2.904;2023-05-07T04:56:56;100195.53;;;26.93
61189;BMP280;47054;39.716;2.904;2023-05-07T04:59:41;100196.28;;;26.93
61189;BMP280;47054;39.716;2.904;2023-05-07T05:02:26;100202.50;;;26.94
61189;BMP280;47054;39.716;2.904;2023-05-07T05:05:11;100200.19;;;26.92
61189;BMP280;47054;39.716;2.904;2023-05-07T05:07:56;100196.28;;;26.93
61189;BMP280;47054;39.716;2.904;2023-05-07T05:10:41;100195.53;;;26.93
61189;BMP280;47054;39.716;2.904;2023-05-07T05:13:28;100190.66;;;26.88
61189;BMP280;47054;39.716;2.904;2023-05-07T05:16:13;100195.53;;;26.93
61189;BMP280;47054;39.716;2.904;2023-05-07T05:18:59;100188.53;;;26.92
61189;BMP280;47054;39.716;2.904;2023-05-07T05:21:44;100197.47;;;26.92
61189;BMP280;47054;39.716;2.904;2023-05-07T05:24:30;100222.72;;;26.93
61189;BMP280;47054;39.716;2.904;2023-05-07T05:27:16;100208.03;;;26.90
61189;BMP280;47054;39.716;2.904;2023-05-07T05:30:00;100215.75;;;26.92
61189;BMP280;47054;39.716;2.904;2023-05-07T05:32:46;100216.50;;;26.92
61189;BMP280;47054;39.716;2.904;2023-05-07T05:35:30;100221.19;;;26.92
61189;BMP280;47054;39.716;2.904;2023-05-07T05:38:17;100226.63;;;26.92
61189;BMP280;47054;39.716;2.904;2023-05-07T05:41:01;100238.75;;;26.91
61189;BMP280;47054;39.716;2.904;2023-05-07T05:43:48;100237.50;;;26.92
61189;BMP280;47054;39.716;2.904;2023-05-07T05:46:33;100238.75;;;26.91
61189;BMP280;47054;39.716;2.904;2023-05-07T05:49:17;100235.34;;;26.87
61189;BMP280;47054;39.716;2.904;2023-05-07T05:52:03;100238.28;;;26.92
61189;BMP280;47054;39.716;2.904;2023-05-07T05:54:47;100239.53;;;26.91
61189;BMP280;47054;39.716;2.904;2023-05-07T05:57:32;100226.63;;;26.92
61189;BMP280;47054;39.716;2.904;2023-05-07T06:00:17;100230.22;;;26.89
61189;BMP280;47054;39.716;2.904;2023-05-07T06:03:04;100234.78;;;26.92
61189;BMP280;47054;39.716;2.904;2023-05-07T06:05:49;100237.50;;;26.92
61189;BMP280;47054;39.716;2.904;2023-05-07T06:08:35;100241.00;;;26.92
61189;BMP280;47054;39.716;2.904;2023-05-07T06:11:22;100241.00;;;26.92
61189;BMP280;47054;39.716;2.904;2023-05-07T06:14:06;100242.53;;;26.93
61189;BMP280;47054;39.716;2.904;2023-05-07T06:16:52;100241.00;;;26.92
61189;BMP280;47054;39.716;2.904;2023-05-07T06:19:36;100231.66;;;26.93
61189;BMP280;47054;39.716;2.904;2023-05-07T06:22:21;100236.34;;;26.93
61189;BMP280;47054;39.716;2.904;2023-05-07T06:25:07;100232.84;;;26.92
61189;BMP280;47054;39.716;2.904;2023-05-07T06:27:52;100239.81;;;26.93
61189;BMP280;47054;39.716;2.904;2023-05-07T06:30:36;100248.75;;;26.94
61189;BMP280;47054;39.716;2.904;2023-05-07T06:33:21;100255.75;;;26.95
61189;BMP280;47054;39.716;2.904;2023-05-07T06:36:06;100255.75;;;26.95
61189;BMP280;47054;39.716;2.904;2023-05-07T06:38:51;100260.72;;;26.96
61189;BMP280;47054;39.716;2.904;2023-05-07T06:41:36;100266.16;;;26.96
61189;BMP280;47054;39.716;2.904;2023-05-07T06:44:26;100268.09;;;26.96
61189;BMP280;47054;39.716;2.904;2023-05-07T06:47:21;100277.81;;;26.97
61189;BMP280;47054;39.716;2.904;2023-05-07T06:50:10;100265.38;;;26.96
61189;BMP280;47054;39.716;2.904;2023-05-07T06:52:55;100268.88;;;26.96
61189;BMP280;47054;39.716;2.904;2023-05-07T06:55:39;100273.16;;;26.97
61189;BMP280;47054;39.716;2.904;2023-05-07T06:58:24;100270.44;;;26.97
61189;BMP280;47054;39.716;2.904;2023-05-07T07:01:10;100271.94;;;26.98
61189;BMP280;47054;39.716;2.904;2023-05-07T07:03:55;100273.91;;;26.98
61189;BMP280;47054;39.716;2.904;2023-05-07T07:06:41;100276.16;;;26.99
61189;BMP280;47054;39.716;2.904;2023-05-07T07:09:28;100273.44;;;26.99
61189;BMP280;47054;39.716;2.904;2023-05-07T07:12:14;100283.16;;;27.00
61189;BMP280;47054;39.716;2.904;2023-05-07T07:15:00;100287.06;;;26.99
61189;BMP280;47054;39.716;2.904;2023-05-07T07:17:48;100291.31;;;27.00
61189;BMP280;47054;39.716;2.904;2023-05-07T07:20:33;100296.75;;;27.00
61189;BMP280;47054;39.716;2.904;2023-05-07T07:23:18;100311.16;;;27.01
61189;BMP280;47054;39.716;2.904;2023-05-07T07:26:03;100313.09;;;27.00
61189;BMP280;47054;39.716;2.904;2023-05-07T07:28:47;100324.75;;;27.01
61189;BMP280;47054;39.716;2.904;2023-05-07T07:31:36;100325.50;;;27.01
61189;BMP280;47054;39.716;2.904;2023-05-07T07:34:20;100334.88;;;27.00
61189;BMP280;47054;39.716;2.904;2023-05-07T07:37:06;100333.66;;;27.01
61189;BMP280;47054;39.716;2.904;2023-05-07T07:39:52;100341.38;;;27.03
61189;BMP280;47054;39.716;2.904;2023-05-07T07:42:38;100341.09;;;27.01
61189;BMP280;47054;39.716;2.904;2023-05-07T07:45:22;100338.34;;;27.01
61189;BMP280;47054;39.716;2.904;2023-05-07T07:48:08;100330.59;;;26.99
61189;BMP280;47054;39.716;2.904;2023-05-07T07:50:55;100329.72;;;27.02
61189;BMP280;47054;39.716;2.904;2023-05-07T07:53:40;100332.44;;;27.02
61189;BMP280;47054;39.716;2.904;2023-05-07T07:56:25;100331.38;;;27.00
61189;BMP280;47054;39.716;2.904;2023-05-07T07:59:10;100336.72;;;27.03
61189;BMP280;47054;39.716;2.904;2023-05-07T08:01:57;100341.38;;;27.03
61189;BMP280;47054;39.716;2.904;2023-05-07T08:04:44;100337.91;;;27.02
61189;BMP280;47054;39.716;2.904;2023-05-07T08:07:29;100342.59;;;27.02
61189;BMP280;47054;39.716;2.904;2023-05-07T08:10:15;100343.34;;;27.02
61189;BMP280;47054;39.716;2.904;2023-05-07T08:13:06;100346.06;;;27.02
61189;BMP280;47054;39.716;2.904;2023-05-07T08:15:53;100339.88;;;27.02
61189;BMP280;47054;39.716;2.904;2023-05-07T08:18:38;100336.38;;;27.01
61189;BMP280;47054;39.716;2.904;2023-05-07T08:21:23;100327.56;;;26.97
61189;BMP280;47054;39.716;2.904;2023-05-07T08:24:08;100334.88;;;27.00
61189;BMP280;47054;39.716;2.904;2023-05-07T08:26:53;100339.22;;;26.98
61189;BMP280;47054;39.716;2.904;2023-05-07T08:29:38;100347.25;;;27.01
61189;BMP280;47054;39.716;2.904;2023-05-07T08:32:22;100353.91;;;27.00
61189;BMP280;47054;39.716;2.904;2023-05-07T08:35:07;100346.53;;;27.01
61189;BMP280;47054;39.716;2.904;2023-05-07T08:37:52;100348.88;;;26.99
61189;BMP280;47054;39.716;2.904;2023-05-07T08:40:38;100341.09;;;27.01
61189;BMP280;47054;39.716;2.904;2023-05-07T08:43:27;100343.03;;;27.00
61189;BMP280;47054;39.716;2.904;2023-05-07T08:46:17;100344.53;;;27.01
61189;BMP280;47054;39.716;2.904;2023-05-07T08:49:02;100342.25;;;27.00
61189;BMP280;47054;39.716;2.904;2023-05-07T08:51:47;100353.16;;;27.00
61189;BMP280;47054;39.716;2.904;2023-05-07T08:54:32;100355.09;;;26.99
61189;BMP280;47054;39.716;2.904;2023-05-07T08:57:18;100357.81;;;26.99
61189;BMP280;47054;39.716;2.904;2023-05-07T09:00:05;100364.47;;;26.98
61189;BMP280;47054;39.716;2.904;2023-05-07T09:02:53;100363.25;;;26.99
61189;BMP280;47054;39.716;2.904;2023-05-07T09:05:38;100364.47;;;26.98
61189;BMP280;47054;39.716;2.904;2023-05-07T09:08:27;100352.06;;;26.97
61189;BMP280;47054;39.716;2.904;2023-05-07T09:11:13;100353.56;;;26.98
61189;BMP280;47054;39.716;2.904;2023-05-07T09:13:58;100355.56;;;26.98
61189;BMP280;47054;39.716;2.904;2023-05-07T09:16:52;100365.31;;;26.95
61189;BMP280;47054;39.716;2.904;2023-05-07T09:19:38;100358.28;;;26.98
61189;BMP280;47054;39.716;2.904;2023-05-07T09:22:25;100358.38;;;26.94
61189;BMP280;47054;39.716;2.904;2023-05-07T09:25:27;100355.19;;;26.96
61189;BMP280;47054;39.716;2.904;2023-05-07T09:28:12;100363.34;;;26.96
61189;BMP280;47054;39.716;2.904;2023-05-07T09:30:57;100364.13;;;26.96
61189;BMP280;47054;39.716;2.904;2023-05-07T09:33:41;100351.28;;;26.97
61189;BMP280;47054;39.716;2.904;2023-05-07T09:36:28;100364.91;;;26.97
61189;BMP280;47054;39.716;2.904;2023-05-07T09:39:14;100362.94;;;26.97
61189;BMP280;47054;39.716;2.904;2023-05-07T09:41:59;100362.19;;;26.97
61189;BMP280;47054;39.716;2.904;2023-05-07T09:44:51;100365.66;;;26.97
61189;BMP280;47054;39.716;2.904;2023-05-07T09:47:40;100368.81;;;26.96
61189;BMP280;47054;39.716;2.904;2023-05-07T09:50:33;100364.47;;;26.98
61189;BMP280;47054;39.716;2.904;2023-05-07T09:53:21;100370.34;;;26.97
61189;BMP280;47054;39.716;2.904;2023-05-07T09:56:07;100372.28;;;26.96
61189;BMP280;47054;39.716;2.904;2023-05-07T09:58:57;100369.16;;;26.98
61189;BMP280;47054;39.716;2.904;2023-05-07T10:01:44;100370.34;;;26.97
61189;BMP280;47054;39.716;2.904;2023-05-07T10:04:31;100368.41;;;26.97
61189;BMP280;47054;39.716;2.904;2023-05-07T10:07:17;100364.91;;;26.97
61189;BMP280;47054;39.716;2.904;2023-05-07T10:10:04;100375.00;;;26.96
61189;BMP280;47054;39.716;2.904;2023-05-07T10:12:55;100370.34;;;26.97
61189;BMP280;47054;39.716;2.904;2023-05-07T10:15:46;100375.56;;;26.91
61189;BMP280;47054;39.716;2.904;2023-05-07T10:18:33;100372.84;;;26.91
61189;BMP280;47054;39.716;2.904;2023-05-07T10:21:25;100379.78;;;26.92
61189;BMP280;47054;39.716;2.904;2023-05-07T10:24:36;100385.59;;;26.94
61189;BMP280;47054;39.716;2.904;2023-05-07T10:27:29;100383.75;;;26.91
61189;BMP280;47054;39.716;2.904;2023-05-07T10:33:39;100384.91;;;26.90
61189;BMP280;47054;39.716;2.904;2023-05-07T10:36:25;100375.97;;;26.90
61189;BMP280;47054;39.716;2.904;2023-05-07T10:39:11;100387.94;;;26.92
61189;BMP280;47054;39.716;2.904;2023-05-07T10:42:07;100386.38;;;26.95
61189;BMP280;47054;39.716;2.904;2023-05-07T10:44:52;100385.22;;;26.92
61189;BMP280;47054;39.716;2.904;2023-05-07T10:48:14;100390.56;;;26.96
61189;BMP280;47054;39.716;2.904;2023-05-07T10:51:21;100373.16;;;26.93
61189;BMP280;47054;39.716;2.904;2023-05-07T11:06:12;100391.03;;;26.94
61189;BMP280;47054;39.716;2.904;2023-05-07T11:09:17;100390.66;;;26.92
61189;BMP280;47054;39.716;2.904;2023-05-07T11:12:12;100392.63;;;26.92
61189;BMP280;47054;39.716;2.904;2023-05-07T11:15:09;100393.47;;;26.89
61189;BMP280;47054;39.716;2.904;2023-05-07T11:17:57;100403.09;;;26.93
61189;BMP280;47054;39.716;2.904;2023-05-07T11:20:53;100400.38;;;26.93
61189;BMP280;47054;39.716;2.904;2023-05-07T11:26:47;100387.94;;;26.92
61189;BMP280;47054;39.716;2.904;2023-05-07T11:29:33;100392.63;;;26.92
61189;BMP280;47054;39.716;2.904;2023-05-07T11:32:30;100401.91;;;26.94
61189;BMP280;47054;39.716;2.904;2023-05-07T11:35:16;100394.63;;;26.91
61189;BMP280;47054;39.716;2.904;2023-05-07T11:38:03;100384.91;;;26.90
61189;BMP280;47054;39.716;2.904;2023-05-07T11:40:56;100392.22;;;26.93
61189;BMP280;47054;39.716;2.904;2023-05-07T11:43:57;100390.56;;;26.96
61189;BMP280;47054;39.716;2.904;2023-05-07T11:46:43;100382.97;;;26.91
61189;BMP280;47054;39.716;2.904;2023-05-07T11:49:29;100374.03;;;26.90
61189;BMP280;47054;39.716;2.904;2023-05-07T11:52:15;100382.09;;;26.94
61189;BMP280;47054;39.716;2.904;2023-05-07T11:55:01;100389.09;;;26.95
61189;BMP280;47054;39.716;2.904;2023-05-07T11:57:48;100387.53;;;26.94
61189;BMP280;47054;39.716;2.904;2023-05-07T12:00:32;100398.84;;;26.92
61189;BMP280;47054;39.716;2.904;2023-05-07T12:03:17;100394.16;;;26.93
61189;BMP280;47054;39.716;2.904;2023-05-07T12:06:22;100395.69;;;26.94
61189;BMP280;47054;39.716;2.904;2023-05-07T12:09:07;100402.69;;;26.95
61189;BMP280;47054;39.716;2.904;2023-05-07T12:11:55;100404.19;;;26.96
61189;BMP280;47054;39.716;2.904;2023-05-07T12:14:42;100412.72;;;26.98
61189;BMP280;47054;39.716;2.904;2023-05-07T12:17:27;100393.06;;;26.90
61189;BMP280;47054;39.716;2.904;2023-05-07T12:20:11;100413.88;;;26.97
61189;BMP280;47054;39.716;2.904;2023-05-07T12:22:57;100405.41;;;26.95
61189;BMP280;47054;39.716;2.904;2023-05-07T12:25:43;100403.88;;;26.94
61189;BMP280;47054;39.716;2.904;2023-05-07T12:28:32;100409.22;;;26.97
61189;BMP280;47054;39.716;2.904;2023-05-07T12:31:20;100398.72;;;26.96
61189;BMP280;47054;39.716;2.904;2023-05-07T12:34:04;100394.84;;;26.97
61189;BMP280;47054;39.716;2.904;2023-05-07T12:36:50;100395.59;;;26.97
61189;BMP280;47054;39.716;2.904;2023-05-07T12:39:35;100404.53;;;26.98
61189;BMP280;47054;39.716;2.904;2023-05-07T12:42:20;100397.88;;;26.99
61189;BMP280;47054;39.716;2.904;2023-05-07T12:45:11;100391.81;;;26.95
61189;BMP280;47054;39.716;2.904;2023-05-07T12:47:56;100391.34;;;26.96
61189;BMP280;47054;39.716;2.904;2023-05-07T12:50:41;100393.66;;;26.98
61189;BMP280;47054;39.716;2.904;2023-05-07T12:53:27;100397.13;;;26.98
61189;BMP280;47054;39.716;2.904;2023-05-07T12:56:11;100394.41;;;26.98
61189;BMP280;47054;39.716;2.904;2023-05-07T12:58:57;100393.66;;;26.98
61189;BMP280;47054;39.716;2.904;2023-05-07T13:01:43;100393.66;;;26.98
61189;BMP280;47054;39.716;2.904;2023-05-07T13:04:28;100393.66;;;26.98
61189;BMP280;47054;39.716;2.904;2023-05-07T13:07:12;100397.56;;;26.97
61189;BMP280;47054;39.716;2.904;2023-05-07T13:09:57;100394.06;;;26.96
61189;BMP280;47054;39.716;2.904;2023-05-07T13:12:41;100395.59;;;26.97
61189;BMP280;47054;39.716;2.904;2023-05-07T13:15:26;100389.41;;;26.97
61189;BMP280;47054;39.716;2.904;2023-05-07T13:18:11;100394.84;;;26.97
61189;BMP280;47054;39.716;2.904;2023-05-07T13:20:56;100387.84;;;26.96
61189;BMP280;47054;39.716;2.904;2023-05-07T13:23:40;100387.84;;;26.96
61189;BMP280;47054;39.716;2.904;2023-05-07T13:26:26;100392.13;;;26.97
61189;BMP280;47054;39.716;2.904;2023-05-07T13:29:10;100394.06;;;26.96
61189;BMP280;47054;39.716;2.904;2023-05-07T13:31:58;100384.72;;;26.97
61189;BMP280;47054;39.716;2.904;2023-05-07T13:34:43;100382.88;;;26.94
61189;BMP280;47054;39.716;2.904;2023-05-07T13:37:28;100378.19;;;26.95
61189;BMP280;47054;39.716;2.904;2023-05-07T13:40:13;100378.19;;;26.95
61189;BMP280;47054;39.716;2.904;2023-05-07T13:42:58;100386.38;;;26.95
61189;BMP280;47054;39.716;2.904;2023-05-07T13:45:44;100385.59;;;26.94
61189;BMP280;47054;39.716;2.904;2023-05-07T13:48:28;100385.22;;;26.92
61189;BMP280;47054;39.716;2.904;2023-05-07T13:51:13;100382.09;;;26.94
61189;BMP280;47054;39.716;2.904;2023-05-07T13:53:58;100380.16;;;26.94
61189;BMP280;47054;39.716;2.904;2023-05-07T13:56:43;100379.38;;;26.94
61189;BMP280;47054;39.716;2.904;2023-05-07T13:59:27;100372.09;;;26.91
61189;BMP280;47054;39.716;2.904;2023-05-07T14:02:11;100368.38;;;26.85
61189;BMP280;47054;39.716;2.904;2023-05-07T14:04:56;100372.38;;;26.93
61189;BMP280;47054;39.716;2.904;2023-05-07T14:07:40;100371.97;;;26.94
61189;BMP280;47054;39.716;2.904;2023-05-07T14:10:25;100377.44;;;26.94
61189;BMP280;47054;39.716;2.904;2023-05-07T14:13:10;100367.31;;;26.95
61189;BMP280;47054;39.716;2.904;2023-05-07T14:15:55;100372.75;;;26.95
61189;BMP280;47054;39.716;2.904;2023-05-07T14:18:39;100369.25;;;26.94
61189;BMP280;47054;39.716;2.904;2023-05-07T14:21:23;100362.28;;;26.93
61189;BMP280;47054;39.716;2.904;2023-05-07T14:24:08;100363.81;;;26.94
61189;BMP280;47054;39.716;2.904;2023-05-07T14:26:52;100357.16;;;26.95
61189;BMP280;47054;39.716;2.904;2023-05-07T14:29:37;100368.03;;;26.95
61189;BMP280;47054;39.716;2.904;2023-05-07T14:32:21;100366.53;;;26.94
61189;BMP280;47054;39.716;2.904;2023-05-07T14:35:06;100360.63;;;26.96
61189;BMP280;47054;39.716;2.904;2023-05-07T14:37:51;100354.88;;;26.94
61189;BMP280;47054;39.716;2.904;2023-05-07T14:40:35;100359.88;;;26.95
61189;BMP280;47054;39.716;2.904;2023-05-07T14:43:20;100357.16;;;26.95
61189;BMP280;47054;39.716;2.904;2023-05-07T14:46:06;100359.88;;;26.95
61189;BMP280;47054;39.716;2.904;2023-05-07T14:48:51;100355.19;;;26.96
61189;BMP280;47054;39.716;2.904;2023-05-07T14:51:35;100357.91;;;26.96
61189;BMP280;47054;39.716;2.904;2023-05-07T14:54:19;100359.47;;;26.97
61189;BMP280;47054;39.716;2.904;2023-05-07T14:57:05;100353.25;;;26.96
61189;BMP280;47054;39.716;2.904;2023-05-07T14:59:50;100359.47;;;26.97
61189;BMP280;47054;39.716;2.904;2023-05-07T15:02:35;100348.56;;;26.97
61189;BMP280;47054;39.716;2.904;2023-05-07T15:05:20;100350.53;;;26.96
61189;BMP280;47054;39.716;2.904;2023-05-07T15:08:04;100350.13;;;26.98
61189;BMP280;47054;39.716;2.904;2023-05-07T15:10:49;100350.13;;;26.98
61189;BMP280;47054;39.716;2.904;2023-05-07T15:13:34;100345.41;;;26.98
61189;BMP280;47054;39.716;2.904;2023-05-07T15:16:19;100353.56;;;26.98
61189;BMP280;47054;39.716;2.904;2023-05-07T15:19:04;100349.34;;;26.97
61189;BMP280;47054;39.716;2.904;2023-05-07T15:21:49;100351.28;;;26.97
61189;BMP280;47054;39.716;2.904;2023-05-07T15:24:34;100348.88;;;26.99
61189;BMP280;47054;39.716;2.904;2023-05-07T15:27:18;100342.34;;;26.96
61189;BMP280;47054;39.716;2.904;2023-05-07T15:30:03;100338.47;;;26.97
61189;BMP280;47054;39.716;2.904;2023-05-07T15:32:49;100346.53;;;27.01
61189;BMP280;47054;39.716;2.904;2023-05-07T15:35:34;100340.72;;;26.99
61189;BMP280;47054;39.716;2.904;2023-05-07T15:38:19;100340.72;;;26.99
61189;BMP280;47054;39.716;2.904;2023-05-07T15:41:04;100353.47;;;27.02
61189;BMP280;47054;39.716;2.904;2023-05-07T15:43:50;100353.47;;;27.02
61189;BMP280;47054;39.716;2.904;2023-05-07T15:46:36;100362.38;;;27.02
61189;BMP280;47054;39.716;2.904;2023-05-07T15:49:20;100362.38;;;27.02
61189;BMP280;47054;39.716;2.904;2023-05-07T15:52:06;100372.88;;;27.04
61189;BMP280;47054;39.716;2.904;2023-05-07T15:54:50;100368.28;;;27.01
61189;BMP280;47054;39.716;2.904;2023-05-07T15:57:35;100365.97;;;26.99
61189;BMP280;47054;39.716;2.904;2023-05-07T16:00:21;100370.91;;;27.04
61189;BMP280;47054;39.716;2.904;2023-05-07T16:03:05;100378.31;;;27.04